Time;durP1;ratioP1;P1;durP2;ratioP2;P2;SDS_P1;SDS_P2;PMS_P1;PMS_P2;Temp;Humidity;BMP_temperature;BMP_pressure;BME280_temperature;BME280_humidity;BME280_pressure;Samples;Min_cycle;Max_cycle;Signal;HPM_P1;HPM_P2
2022/05/26 00:00:26;;;;;;;80.57;35.75;;;;;;;26.13;88.20;97659.31;4851912;29;20141;-62
2022/05/26 00:03:16;;;;;;;69.57;34.10;;;;;;;26.22;88.21;97666.22;4852242;29;20092;-63
2022/05/26 00:05:58;;;;;;;71.45;35.50;;;;;;;26.20;92.32;97673.50;4852841;29;20334;-63
2022/05/26 00:08:49;;;;;;;66.32;35.90;;;;;;;26.27;90.94;97677.13;4852409;29;20061;-63
2022/05/26 00:11:35;;;;;;;78.18;35.03;;;;;;;26.18;89.76;97672.84;4851555;29;20053;-63
2022/05/26 00:14:25;;;;;;;65.30;33.95;;;;;;;26.24;93.24;97673.00;4848781;29;20383;-63
2022/05/26 00:17:14;;;;;;;72.55;33.55;;;;;;;26.21;92.01;97675.97;4851885;29;20061;-63
2022/05/26 00:20:04;;;;;;;73.47;34.35;;;;;;;26.24;92.41;97674.81;4851497;29;20549;-63
2022/05/26 00:22:53;;;;;;;69.25;32.92;;;;;;;26.24;93.69;97678.28;4855680;29;20074;-63
2022/05/26 00:25:42;;;;;;;77.45;37.55;;;;;;;26.20;100.00;97673.50;4850112;29;20462;-63
2022/05/26 00:28:31;;;;;;;91.00;41.42;;;;;;;26.20;99.40;97674.31;4850979;29;20060;-63
2022/05/26 00:31:13;;;;;;;103.15;42.47;;;;;;;26.15;97.08;97678.47;4850164;29;20053;-63
2022/05/26 00:34:03;;;;;;;84.53;40.13;;;;;;;26.17;94.27;97685.25;4854629;29;20802;-63
2022/05/26 00:36:45;;;;;;;68.85;36.50;;;;;;;26.32;99.55;97688.03;4850241;29;20057;-63
2022/05/26 00:39:34;;;;;;;75.10;34.38;;;;;;;26.32;98.47;97688.03;4852277;29;20830;-62
2022/05/26 00:42:16;;;;;;;84.70;39.95;;;;;;;26.30;95.54;97690.00;4851475;29;20076;-63
2022/05/26 00:45:05;;;;;;;78.15;38.35;;;;;;;26.45;96.78;97692.78;4852354;29;20133;-63
2022/05/26 00:47:52;;;;;;;82.43;38.08;;;;;;;26.44;93.80;97691.13;4852199;29;20049;-63
2022/05/26 00:51:00;;;;;;;89.93;41.50;;;;;;;26.48;94.09;97689.81;4852681;29;20057;-63
2022/05/26 00:53:59;;;;;;;70.85;38.13;;;;;;;26.53;93.31;97693.56;4853560;29;20152;-63
2022/05/26 00:56:59;;;;;;;73.30;35.85;;;;;;;26.57;96.78;97688.78;4854547;29;20121;-63
2022/05/26 00:59:52;;;;;;;68.18;36.38;;;;;;;26.54;99.96;97686.47;4852928;29;20065;-63
2022/05/26 01:02:53;;;;;;;66.15;34.42;;;;;;;26.62;100.00;97684.63;4852276;29;20077;-63
2022/05/26 01:05:40;;;;;;;86.78;40.40;;;;;;;26.63;100.00;97696.03;4852316;29;20061;-63
2022/05/26 01:08:47;;;;;;;73.50;34.80;;;;;;;26.52;98.54;97705.13;4851870;29;20407;-63
2022/05/26 01:11:24;;;;;;;67.00;35.00;;;;;;;26.58;100.00;97706.28;4850971;29;20065;-63
2022/05/26 01:14:15;;;;;;;64.60;32.60;;;;;;;26.55;98.52;97715.38;4853863;29;20072;-63
2022/05/26 01:17:24;;;;;;;72.47;32.95;;;;;;;26.59;97.44;97721.94;4852449;29;20053;-62
2022/05/26 01:20:35;;;;;;;63.40;32.42;;;;;;;26.78;100.00;97723.38;4851607;29;20057;-62
2022/05/26 01:23:50;;;;;;;77.10;32.20;;;;;;;26.61;98.30;97727.06;4850687;29;20057;-62
2022/05/26 01:26:53;;;;;;;70.22;32.38;;;;;;;26.74;100.00;97731.84;4851069;29;20049;-62
2022/05/26 01:29:45;;;;;;;68.63;32.30;;;;;;;26.86;100.00;97743.66;4851718;29;20064;-61
2022/05/26 01:32:58;;;;;;;64.80;30.65;;;;;;;26.92;100.00;97745.66;4851456;29;20056;-62
2022/05/26 01:35:56;;;;;;;63.42;32.13;;;;;;;27.07;100.00;97738.63;4851731;29;20057;-62
2022/05/26 01:39:18;;;;;;;57.72;27.88;;;;;;;27.18;100.00;97748.84;4850487;29;20049;-62
2022/05/26 01:42:14;;;;;;;64.82;29.50;;;;;;;27.33;96.94;97762.16;4852649;29;20061;-62
2022/05/26 01:45:46;;;;;;;65.57;31.30;;;;;;;27.58;98.22;97760.22;4853760;29;20403;-62
2022/05/26 01:48:32;;;;;;;82.05;31.65;;;;;;;27.89;100.00;97754.84;4843483;29;20057;-62
2022/05/26 01:51:32;;;;;;;57.95;29.05;;;;;;;28.23;99.99;97760.56;4854955;29;20072;-62
2022/05/26 01:54:25;;;;;;;56.33;28.50;;;;;;;28.54;99.87;97757.75;4854608;29;20114;-62
2022/05/26 01:57:22;;;;;;;60.85;27.77;;;;;;;28.76;94.22;97762.16;4854754;29;20120;-63
2022/05/26 02:00:19;;;;;;;65.07;27.52;;;;;;;29.12;83.88;97758.75;4852455;29;20133;-63
2022/05/26 02:03:15;;;;;;;59.30;26.65;;;;;;;29.39;86.61;97765.22;4854505;29;20049;-64
2022/05/26 02:06:20;;;;;;;60.53;25.63;;;;;;;29.60;78.88;97765.25;4853595;29;20045;-63
2022/05/26 02:09:28;;;;;;;51.22;26.02;;;;;;;29.76;76.59;97770.31;4852602;29;20144;-64
2022/05/26 02:12:21;;;;;;;62.83;24.10;;;;;;;30.25;77.64;97773.00;4852746;29;20117;-63
2022/05/26 02:15:13;;;;;;;60.75;25.98;;;;;;;30.30;74.95;97773.28;4853377;29;20060;-63
2022/05/26 02:18:04;;;;;;;58.67;24.70;;;;;;;30.69;77.83;97770.09;4852957;29;20486;-63
2022/05/26 02:21:00;;;;;;;52.03;24.55;;;;;;;30.85;77.47;97774.28;4851030;29;20284;-63
2022/05/26 02:24:04;;;;;;;53.57;24.57;;;;;;;31.26;72.23;97779.63;4835829;29;20109;-63
2022/05/26 02:26:53;;;;;;;57.40;23.83;;;;;;;31.35;66.38;97786.41;4854123;29;20138;-63
2022/05/26 02:29:53;;;;;;;59.10;25.30;;;;;;;31.37;65.30;97781.69;4851161;29;20049;-63
2022/05/26 02:32:57;;;;;;;46.67;24.92;;;;;;;31.77;66.76;97785.31;4852326;29;20060;-63
2022/05/26 02:35:43;;;;;;;45.70;23.70;;;;;;;31.99;71.29;97785.97;4852935;29;20525;-64
2022/05/26 02:38:33;;;;;;;52.60;26.77;;;;;;;31.85;67.36;97789.63;4855948;29;20065;-64
2022/05/26 02:41:15;;;;;;;59.13;27.13;;;;;;;31.92;62.03;97796.63;4852857;29;20049;-63
2022/05/26 02:44:05;;;;;;;51.08;25.80;;;;;;;32.17;63.71;97794.19;4852586;29;20561;-64
2022/05/26 02:47:02;;;;;;;50.80;26.23;;;;;;;32.15;59.78;97798.06;4853201;29;20080;-64
2022/05/26 02:49:54;;;;;;;55.83;24.90;;;;;;;32.33;60.81;97797.50;4852397;29;20053;-64
2022/05/26 02:53:03;;;;;;;50.00;23.30;;;;;;;32.62;58.04;97799.72;4852465;29;20060;-63
2022/05/26 02:56:04;;;;;;;52.88;24.23;;;;;;;32.78;60.32;97802.00;4852710;29;20500;-64
2022/05/26 02:59:05;;;;;;;59.60;22.27;;;;;;;33.32;61.59;97798.16;4853191;29;20057;-63
2022/05/26 03:02:33;;;;;;;53.22;22.27;;;;;;;33.16;59.91;97798.59;4853143;29;20088;-63
2022/05/26 03:05:50;;;;;;;46.00;21.50;;;;;;;33.25;58.82;97803.53;4529334;29;8565941;-64
2022/05/26 03:08:41;;;;;;;60.42;22.20;;;;;;;33.30;60.96;97806.34;4834507;29;20076;-64
2022/05/26 03:11:32;;;;;;;45.20;20.80;;;;;;;33.46;60.37;97805.06;4835333;29;20046;-64
2022/05/26 03:14:15;;;;;;;45.42;20.88;;;;;;;33.41;56.94;97808.38;4835201;29;20425;-63
2022/05/26 03:17:05;;;;;;;35.28;18.35;;;;;;;33.51;62.31;97805.25;4868030;29;20064;-63
2022/05/26 03:19:47;;;;;;;49.85;19.63;;;;;;;33.14;54.96;97812.13;4853313;29;20061;-64
2022/05/26 03:22:36;;;;;;;37.30;18.98;;;;;;;33.71;56.58;97803.28;4853837;29;20057;-63
2022/05/26 03:25:18;;;;;;;33.42;16.80;;;;;;;33.92;53.32;97812.03;4853579;29;20476;-64
2022/05/26 03:28:07;;;;;;;37.78;17.20;;;;;;;33.65;49.98;97812.16;4854221;29;20163;-64
2022/05/26 03:30:49;;;;;;;30.77;15.15;;;;;;;33.34;49.23;97809.44;4854109;29;20061;-64
2022/05/26 03:42:53;;;;;;;34.80;15.57;;;;;;;34.25;49.80;97807.28;4853638;29;20117;-64
2022/05/26 03:45:35;;;;;;;44.03;14.27;;;;;;;34.24;51.07;97808.34;4840186;29;20053;-64
2022/05/26 03:48:30;;;;;;;36.55;14.90;;;;;;;34.42;46.86;97805.69;4853201;29;20493;-64
2022/05/26 03:51:05;;;;;;;42.03;14.05;;;;;;;34.01;50.19;97802.69;4852650;29;20053;-64
2022/05/26 03:53:55;;;;;;;37.53;14.00;;;;;;;34.52;48.15;97808.72;4852110;29;20049;-63
2022/05/26 03:56:45;;;;;;;32.25;12.90;;;;;;;34.56;46.46;97803.75;4852789;29;20113;-63
2022/05/26 03:59:27;;;;;;;26.60;13.40;;;;;;;34.83;45.81;97809.69;4852738;29;20092;-64
2022/05/26 04:02:16;;;;;;;34.42;13.02;;;;;;;34.70;46.89;97807.94;4851581;29;20061;-64
2022/05/26 04:05:05;;;;;;;30.27;12.35;;;;;;;35.11;49.63;97803.81;4852763;29;20072;-64
2022/05/26 04:07:54;;;;;;;27.02;11.10;;;;;;;34.82;48.06;97805.34;4852748;29;20057;-64
2022/05/26 04:10:43;;;;;;;34.15;11.40;;;;;;;35.51;46.59;97812.22;4852543;29;20057;-63
2022/05/26 04:13:32;;;;;;;30.85;10.50;;;;;;;35.44;44.32;97806.13;4850034;29;20113;-63
2022/05/26 04:16:21;;;;;;;26.83;8.90;;;;;;;34.80;46.74;97812.81;4849557;29;20080;-64
2022/05/26 04:19:03;;;;;;;27.25;10.77;;;;;;;35.02;45.16;97810.50;4851658;29;20037;-64
2022/05/26 04:25:06;;;;;;;29.50;10.35;;;;;;;35.12;42.48;97808.13;4851267;29;20045;-64
2022/05/26 04:27:41;;;;;;;27.58;9.18;;;;;;;35.59;42.84;97817.25;4850920;29;20121;-64
2022/05/26 04:30:30;;;;;;;30.52;9.07;;;;;;;35.47;45.37;97814.53;4852143;29;20126;-64
2022/05/26 04:33:19;;;;;;;20.40;8.10;;;;;;;35.46;41.27;97817.41;4851790;29;20487;-64
2022/05/26 04:36:05;;;;;;;25.63;7.85;;;;;;;36.18;45.26;97810.22;4851120;29;20041;-64
2022/05/26 04:38:56;;;;;;;22.90;9.05;;;;;;;35.97;42.94;97812.41;4852192;29;20125;-64
2022/05/26 04:41:38;;;;;;;25.75;8.38;;;;;;;35.45;42.26;97810.41;4851738;29;20164;-63
2022/05/26 04:44:27;;;;;;;23.27;8.30;;;;;;;34.77;46.44;97811.38;4851659;29;20065;-64
2022/05/26 04:47:09;;;;;;;24.15;9.30;;;;;;;36.05;46.31;97812.09;4851317;29;20061;-63
2022/05/26 04:49:59;;;;;;;22.65;7.88;;;;;;;35.91;41.63;97813.34;4853933;29;20141;-64
2022/05/26 04:52:42;;;;;;;23.98;7.10;;;;;;;35.66;43.72;97812.63;4851355;29;20065;-63
2022/05/26 04:55:31;;;;;;;19.88;8.13;;;;;;;35.37;44.40;97808.06;4849939;29;20049;-63
2022/05/26 04:58:26;;;;;;;29.05;8.27;;;;;;;35.43;43.81;97801.81;4850991;29;20054;-64
2022/05/26 05:01:10;;;;;;;28.95;9.45;;;;;;;35.59;42.88;97807.38;4849100;29;20053;-64
2022/05/26 05:04:00;;;;;;;22.30;8.07;;;;;;;36.20;44.29;97808.16;4851457;29;20053;-64
2022/05/26 05:06:55;;;;;;;21.38;8.65;;;;;;;35.89;45.64;97801.19;4851861;29;20110;-64
2022/05/26 05:09:45;;;;;;;29.58;9.80;;;;;;;36.00;44.55;97801.22;4850406;29;20073;-64
2022/05/26 05:12:29;;;;;;;25.75;8.43;;;;;;;36.28;41.83;97799.78;4849044;29;20058;-67
2022/05/26 05:15:24;;;;;;;25.20;8.65;;;;;;;35.93;44.12;97803.19;4849190;29;20064;-64
2022/05/26 05:18:14;;;;;;;20.05;8.02;;;;;;;35.76;44.82;97802.19;4853572;29;20069;-66
2022/05/26 05:21:02;;;;;;;23.65;8.30;;;;;;;35.26;41.32;97806.97;4853497;29;20061;-64
2022/05/26 05:24:24;;;;;;;25.75;7.20;;;;;;;35.87;43.08;97798.72;4848025;29;20129;-63
2022/05/26 05:27:43;;;;;;;31.45;7.57;;;;;;;36.34;41.84;97806.91;4855026;29;20069;-66
2022/05/26 05:30:47;;;;;;;17.33;8.00;;;;;;;36.10;43.80;97808.69;4850552;29;20073;-66
2022/05/26 05:33:52;;;;;;;23.60;7.65;;;;;;;35.65;42.69;97806.44;4853353;29;20049;-66
2022/05/26 05:36:45;;;;;;;38.40;8.07;;;;;;;35.89;40.10;97804.69;4853595;29;20161;-66
2022/05/26 05:39:41;;;;;;;21.95;7.63;;;;;;;36.20;43.05;97802.81;4854631;29;20049;-67
2022/05/26 05:42:16;;;;;;;15.88;8.07;;;;;;;36.61;46.43;97792.00;4851710;29;20053;-63
2022/05/26 05:45:06;;;;;;;24.73;7.65;;;;;;;36.33;40.07;97792.66;4855293;29;20105;-65
2022/05/26 05:47:48;;;;;;;22.30;8.43;;;;;;;36.04;43.38;97796.22;4855037;29;20090;-66
2022/05/26 05:50:37;;;;;;;28.60;7.93;;;;;;;35.99;43.34;97794.25;4851488;29;20045;-67
2022/05/26 05:53:26;;;;;;;18.48;7.95;;;;;;;36.25;40.28;97794.88;4853370;29;20561;-68
2022/05/26 05:56:08;;;;;;;18.35;7.90;;;;;;;35.96;39.27;97781.28;4853781;29;20073;-67
2022/05/26 05:58:57;;;;;;;31.33;7.80;;;;;;;36.18;44.92;97778.03;4854470;29;20069;-66
2022/05/26 06:01:39;;;;;;;25.83;8.20;;;;;;;35.80;40.26;97776.56;4852257;29;20053;-67
2022/05/26 06:04:28;;;;;;;22.73;8.60;;;;;;;35.94;40.48;97780.69;4853367;29;20097;-67
2022/05/26 06:07:19;;;;;;;19.45;7.93;;;;;;;36.34;41.16;97780.06;4807314;29;20058;-66
2022/05/26 06:10:10;;;;;;;26.95;8.77;;;;;;;36.45;41.63;97781.13;4822248;29;20470;-66
2022/05/26 06:12:53;;;;;;;25.75;9.25;;;;;;;36.42;39.71;97782.41;4813248;29;20142;-67
2022/05/26 06:15:45;;;;;;;24.65;6.72;;;;;;;35.72;39.40;97770.72;4802898;29;20050;-66
2022/05/26 06:18:34;;;;;;;22.00;9.18;;;;;;;35.89;39.13;97767.16;4818093;29;20144;-66
2022/05/26 06:21:16;;;;;;;14.68;8.00;;;;;;;36.33;41.65;97770.38;4814005;29;20049;-67
2022/05/26 06:24:05;;;;;;;19.85;7.13;;;;;;;35.99;39.60;97780.00;4812370;29;20058;-67
2022/05/26 06:26:48;;;;;;;25.48;7.28;;;;;;;36.27;39.76;97772.13;4812520;29;20058;-68
2022/05/26 06:29:49;;;;;;;28.90;8.43;;;;;;;35.90;39.02;97754.56;4810739;29;20058;-67
2022/05/26 06:38:47;;;;;;;19.75;7.00;;;;;;;36.06;43.28;97756.56;4814508;29;20050;-67
2022/05/26 06:44:40;;;;;;;18.58;7.10;;;;;;;36.34;40.61;97751.38;4809291;29;20070;-67
2022/05/26 06:47:29;;;;;;;24.15;6.55;;;;;;;36.20;38.52;97749.16;4811239;29;20054;-67
2022/05/26 06:50:12;;;;;;;13.20;5.95;;;;;;;36.23;39.30;97751.38;4813237;29;20050;-67
2022/05/26 06:53:08;;;;;;;16.42;6.50;;;;;;;36.34;41.08;97737.13;4478395;29;10000397;-66
2022/05/26 06:55:44;;;;;;;13.07;7.35;;;;;;;36.39;41.79;97732.72;4817001;29;20082;-68
2022/05/26 06:58:34;;;;;;;17.25;6.57;;;;;;;36.54;39.76;97728.72;4810365;29;20527;-65
2022/05/26 07:01:17;;;;;;;23.48;8.57;;;;;;;35.92;37.93;97734.50;4811959;29;20054;-66
2022/05/26 07:04:06;;;;;;;25.65;7.30;;;;;;;36.04;40.23;97729.97;4811725;29;20139;-68
2022/05/26 07:07:02;;;;;;;26.23;8.07;;;;;;;36.11;38.66;97719.13;4843939;29;20380;-69
2022/05/26 07:09:56;;;;;;;25.58;6.57;;;;;;;36.38;41.24;97708.78;4848211;29;20113;-66
2022/05/26 07:12:48;;;;;;;21.33;7.70;;;;;;;35.78;39.20;97718.84;4849444;29;20073;-65
2022/05/26 07:15:30;;;;;;;13.48;6.75;;;;;;;36.18;38.31;97700.22;4848915;29;20053;-68
2022/05/26 07:18:20;;;;;;;20.05;7.93;;;;;;;36.46;42.47;97708.44;4833345;29;20126;-68
2022/05/26 07:21:17;;;;;;;20.40;6.53;;;;;;;36.42;40.52;97700.03;4848483;29;20053;-66
2022/05/26 07:23:52;;;;;;;14.02;7.53;;;;;;;36.33;39.46;97700.59;4845231;29;20053;-68
2022/05/26 07:26:42;;;;;;;26.77;7.63;;;;;;;36.20;39.54;97690.94;4847831;29;20498;-66
2022/05/26 07:29:26;;;;;;;18.48;7.10;;;;;;;36.22;41.52;97682.66;4830870;29;20169;-67
2022/05/26 07:32:15;;;;;;;25.10;9.27;;;;;;;35.97;40.12;97686.34;4846467;29;20209;-66
2022/05/26 07:35:04;;;;;;;18.30;7.05;;;;;;;35.90;37.51;97679.47;4847538;29;20061;-65
2022/05/26 07:44:12;;;;;;;14.23;6.45;;;;;;;36.27;37.62;97675.53;4850775;29;20509;-66
2022/05/26 07:47:01;;;;;;;17.15;7.13;;;;;;;36.26;38.32;97668.53;4850642;29;20550;-67
2022/05/26 07:49:50;;;;;;;18.63;7.55;;;;;;;36.24;39.78;97659.09;4850969;29;20042;-66
2022/05/26 07:52:32;;;;;;;20.52;7.15;;;;;;;36.12;37.22;97661.75;4851596;29;20061;-66
2022/05/26 07:55:21;;;;;;;16.30;6.20;;;;;;;36.32;39.98;97653.38;4851801;29;20076;-65
2022/05/26 07:58:08;;;;;;;27.98;6.97;;;;;;;36.18;40.26;97654.63;4852929;29;20049;-65
2022/05/26 08:00:57;;;;;;;17.42;7.85;;;;;;;36.20;38.29;97655.25;4852028;29;20180;-67
2022/05/26 08:03:46;;;;;;;22.65;7.13;;;;;;;35.98;38.22;97647.78;4850794;29;20109;-66
2022/05/26 08:06:34;;;;;;;21.50;7.03;;;;;;;35.98;39.61;97638.91;4849538;29;20211;-67
2022/05/26 08:09:37;;;;;;;17.63;6.70;;;;;;;36.03;39.72;97634.47;4818645;29;20167;-67
2022/05/26 08:12:27;;;;;;;24.30;7.43;;;;;;;35.87;36.90;97637.03;4814787;29;20054;-67
2022/05/26 08:15:36;;;;;;;17.20;6.13;;;;;;;35.88;39.11;97628.75;4815085;29;20054;-68
2022/05/26 08:18:27;;;;;;;20.08;7.82;;;;;;;35.70;39.91;97631.50;4815213;29;20050;-67
2022/05/26 08:21:22;;;;;;;21.67;6.70;;;;;;;35.87;38.81;97619.06;4814380;29;20491;-68
2022/05/26 08:24:04;;;;;;;28.58;7.30;;;;;;;36.02;39.86;97607.88;4812790;29;20603;-66
2022/05/26 08:26:54;;;;;;;25.10;6.30;;;;;;;35.89;37.86;97613.47;4815120;29;20061;-67
2022/05/26 08:29:38;;;;;;;19.85;6.72;;;;;;;35.66;37.81;97608.91;4815696;29;20062;-67
2022/05/26 08:32:29;;;;;;;15.98;7.15;;;;;;;35.65;39.74;97605.41;4818238;29;20098;-66
2022/05/26 08:35:18;;;;;;;22.85;6.50;;;;;;;35.74;41.28;97600.53;4816112;29;20854;-67
2022/05/26 08:38:07;;;;;;;16.40;6.78;;;;;;;35.72;40.50;97597.28;4816667;29;20053;-68
2022/05/26 08:40:51;;;;;;;17.30;6.47;;;;;;;35.76;38.87;97595.75;4816670;29;20054;-66
2022/05/26 08:43:48;;;;;;;18.38;6.63;;;;;;;35.83;41.18;97588.44;4816026;29;20054;-67
2022/05/26 08:47:01;;;;;;;18.55;6.65;;;;;;;35.87;40.02;97583.41;4817906;29;20062;-66
2022/05/26 08:49:56;;;;;;;20.50;6.85;;;;;;;35.70;38.53;97585.94;4815528;29;20137;-67
2022/05/26 08:53:09;;;;;;;21.15;6.28;;;;;;;35.45;39.63;97574.59;4818046;29;20065;-66
2022/05/26 08:55:56;;;;;;;14.07;6.32;;;;;;;35.40;40.18;97569.13;4819515;29;20126;-65
2022/05/26 08:58:50;;;;;;;22.63;6.30;;;;;;;35.45;41.92;97563.88;4848935;29;20051;-66
2022/05/26 09:01:39;;;;;;;17.10;6.00;;;;;;;35.48;41.32;97558.06;4819917;29;20054;-66
2022/05/26 09:04:29;;;;;;;22.38;6.47;;;;;;;35.56;42.56;97552.38;4804375;29;20053;-66
2022/05/26 09:13:51;;;;;;;22.52;6.65;;;;;;;35.48;41.16;97552.72;4814223;29;20145;-66
2022/05/26 09:16:29;;;;;;;24.75;8.20;;;;;;;35.48;41.17;97545.50;4816330;29;20049;-66
2022/05/26 09:19:27;;;;;;;21.23;6.03;;;;;;;35.43;38.54;97549.94;4830122;29;20516;-66
2022/05/26 09:22:44;;;;;;;13.02;6.20;;;;;;;35.46;40.62;97538.72;4816808;29;20053;-65
2022/05/26 09:25:49;;;;;;;22.65;6.53;;;;;;;35.45;37.79;97535.22;4821585;29;20121;-66
2022/05/26 09:28:40;;;;;;;22.80;6.90;;;;;;;35.56;40.93;97522.88;4820237;29;20054;-66
2022/05/26 09:31:37;;;;;;;25.17;6.97;;;;;;;35.55;42.77;97521.25;4817185;29;20058;-66
2022/05/26 09:34:34;;;;;;;15.80;6.38;;;;;;;35.41;40.10;97509.13;4820851;29;20106;-66
2022/05/26 09:37:45;;;;;;;13.30;6.05;;;;;;;35.33;38.96;97512.16;4822810;29;20054;-66
2022/05/26 09:40:33;;;;;;;21.55;6.18;;;;;;;35.35;38.26;97500.19;4815146;29;20062;-66
2022/05/26 09:43:23;;;;;;;17.50;6.57;;;;;;;35.21;40.39;97496.84;4813726;29;20058;-66
2022/05/26 09:46:15;;;;;;;17.40;6.97;;;;;;;35.35;39.68;97496.69;4815753;29;20546;-66
2022/05/26 09:49:11;;;;;;;21.80;6.80;;;;;;;35.36;38.79;97490.28;4815334;29;20142;-65
2022/05/26 09:52:46;;;;;;;11.85;6.60;;;;;;;35.25;39.84;97487.34;4817982;29;20557;-67
2022/05/26 09:55:26;;;;;;;19.25;6.20;;;;;;;35.23;40.61;97483.28;4822562;29;20162;-66
2022/05/26 09:58:44;;;;;;;20.65;6.63;;;;;;;35.29;38.94;97467.06;4822647;29;20054;-66
2022/05/26 10:01:43;;;;;;;13.75;6.13;;;;;;;35.27;38.71;97476.41;4825770;29;20054;-66
2022/05/26 10:04:52;;;;;;;23.95;6.68;;;;;;;35.28;39.50;97468.13;4821641;29;20554;-66
2022/05/26 10:08:05;;;;;;;15.82;5.85;;;;;;;35.37;39.95;97468.59;4821301;29;20526;-67
2022/05/26 10:11:06;;;;;;;22.88;6.80;;;;;;;35.35;38.76;97459.16;4847986;29;20065;-65
2022/05/26 10:14:12;;;;;;;17.95;6.65;;;;;;;35.35;38.37;97456.50;4849781;29;20176;-66
2022/05/26 10:18:07;;;;;;;17.67;6.40;;;;;;;35.12;39.69;97452.72;4850583;29;20075;-66
2022/05/26 10:21:02;;;;;;;18.33;6.90;;;;;;;35.12;42.08;97452.72;4748556;29;20097;-66
2022/05/26 10:24:05;;;;;;;14.70;5.72;;;;;;;35.07;40.10;97449.91;4780379;29;20059;-65
2022/05/26 10:27:03;;;;;;;17.95;6.53;;;;;;;35.02;41.07;97447.13;4851654;29;20489;-66
2022/05/26 10:30:12;;;;;;;16.50;6.70;;;;;;;35.12;39.49;97442.00;4851715;29;20117;-66
2022/05/26 10:32:57;;;;;;;17.75;6.30;;;;;;;35.22;39.38;97439.59;4851076;29;20045;-66
2022/05/26 10:36:02;;;;;;;18.35;6.10;;;;;;;35.10;40.15;97436.09;4852254;29;20546;-66
2022/05/26 10:39:08;;;;;;;16.83;6.25;;;;;;;35.12;39.78;97430.50;4837291;29;20084;-65
2022/05/26 10:42:01;;;;;;;18.83;5.63;;;;;;;35.11;40.77;97432.38;4849843;29;20053;-66
2022/05/26 10:45:07;;;;;;;18.58;6.90;;;;;;;35.07;39.38;97428.50;4850533;29;20064;-63
2022/05/26 10:48:12;;;;;;;16.58;6.38;;;;;;;35.00;41.48;97421.63;4836831;29;20053;-62
2022/05/26 10:51:07;;;;;;;17.33;6.43;;;;;;;34.97;40.77;97420.22;4851809;29;20049;-63
2022/05/26 10:53:54;;;;;;;26.58;6.93;;;;;;;35.00;40.39;97416.28;4851778;29;20059;-62
2022/05/26 10:57:05;;;;;;;13.63;5.63;;;;;;;35.04;38.57;97417.47;4851839;29;20061;-63
2022/05/26 11:00:09;;;;;;;20.75;6.30;;;;;;;35.07;40.31;97407.06;4852376;29;20068;-63
2022/05/26 11:03:36;;;;;;;23.27;6.03;;;;;;;34.86;38.55;97399.63;4849478;29;20056;-65
2022/05/26 11:06:30;;;;;;;19.88;6.22;;;;;;;34.99;40.28;97398.56;4852581;29;20053;-63
2022/05/26 11:09:29;;;;;;;18.63;5.68;;;;;;;34.92;39.12;97401.38;4847589;29;20087;-63
2022/05/26 11:12:33;;;;;;;13.57;6.00;;;;;;;34.92;40.54;97393.34;4848929;29;20065;-64
2022/05/26 11:19:32;;;;;;;18.55;5.55;;;;;;;34.96;40.34;97385.66;4818114;29;20549;-64
2022/05/26 11:22:22;;;;;;;26.20;6.38;;;;;;;35.06;38.35;97389.38;4855063;29;20106;-64
2022/05/26 11:25:14;;;;;;;20.67;6.88;;;;;;;34.96;40.02;97383.00;4851475;29;20380;-63
2022/05/26 11:28:11;;;;;;;14.50;6.32;;;;;;;34.91;40.44;97381.00;4850796;29;20076;-64
2022/05/26 11:37:30;;;;;;;14.00;5.32;;;;;;;34.85;40.62;97368.56;4851464;29;20156;-64
2022/05/26 11:40:16;;;;;;;9.75;5.28;;;;;;;34.80;41.21;97366.56;4851769;29;20440;-62
2022/05/26 11:43:07;;;;;;;12.88;5.72;;;;;;;34.71;39.75;97369.78;4854652;29;20140;-63
2022/05/26 11:45:58;;;;;;;21.10;6.18;;;;;;;34.73;39.01;97363.19;4850766;29;20064;-65
2022/05/26 11:48:47;;;;;;;18.15;7.00;;;;;;;34.72;39.67;97358.84;4519202;29;10000582;-65
2022/05/26 11:51:40;;;;;;;15.23;5.97;;;;;;;34.76;38.69;97361.91;4848805;29;20053;-64
2022/05/26 11:54:58;;;;;;;24.58;5.30;;;;;;;34.75;38.95;97358.41;4848357;29;20061;-63
2022/05/26 11:57:48;;;;;;;18.55;5.40;;;;;;;34.74;38.16;97355.97;4849258;29;20053;-63
2022/05/26 12:00:40;;;;;;;16.05;6.00;;;;;;;34.75;39.46;97354.91;4849344;29;20053;-63
2022/05/26 12:03:29;;;;;;;18.63;5.85;;;;;;;34.62;41.31;97349.78;4849607;29;20053;-64
2022/05/26 12:06:14;;;;;;;20.77;7.05;;;;;;;34.47;39.32;97344.88;4848498;29;20105;-64
2022/05/26 12:09:51;;;;;;;15.30;6.13;;;;;;;34.36;39.71;97346.47;4848897;29;20064;-64
2022/05/26 12:12:47;;;;;;;20.88;5.47;;;;;;;34.25;41.11;97344.56;4848321;29;20069;-64
2022/05/26 12:15:36;;;;;;;22.67;6.03;;;;;;;34.22;41.59;97344.19;4843643;29;20470;-64
2022/05/26 12:19:09;;;;;;;17.63;6.15;;;;;;;34.34;39.99;97340.53;4845386;29;20049;-64
2022/05/26 12:21:48;;;;;;;15.05;5.55;;;;;;;34.23;40.73;97343.16;4849970;29;20109;-63
2022/05/26 12:24:37;;;;;;;15.02;6.20;;;;;;;34.31;39.70;97346.34;4849537;29;20057;-65
2022/05/26 12:27:56;;;;;;;18.52;5.72;;;;;;;34.21;40.49;97348.72;4852260;29;20161;-64
2022/05/26 12:30:45;;;;;;;25.35;5.47;;;;;;;34.19;39.35;97348.97;4847782;29;20041;-63
2022/05/26 12:33:47;;;;;;;18.23;5.90;;;;;;;34.08;41.81;97354.28;4843350;29;20169;-63
2022/05/26 12:36:44;;;;;;;22.73;6.60;;;;;;;33.99;41.67;97348.44;4847659;29;20053;-64
2022/05/26 12:39:48;;;;;;;13.00;6.10;;;;;;;33.90;41.57;97347.13;4849591;29;20089;-64
2022/05/26 12:43:07;;;;;;;23.38;6.05;;;;;;;33.82;40.50;97350.13;4850011;29;20065;-64
2022/05/26 12:46:05;;;;;;;21.60;5.68;;;;;;;33.70;43.91;97344.69;4856827;29;20870;-65
2022/05/26 12:49:28;;;;;;;18.02;6.50;;;;;;;33.63;41.69;97351.97;4500930;29;10000261;-65
2022/05/26 12:52:21;;;;;;;15.85;5.40;;;;;;;33.60;40.77;97349.75;4840156;29;20049;-65
2022/05/26 12:55:08;;;;;;;13.43;5.50;;;;;;;33.55;40.52;97354.13;4850413;29;20057;-63
2022/05/26 12:58:11;;;;;;;18.50;7.18;;;;;;;33.44;44.70;97348.50;4852557;29;20505;-62
2022/05/26 13:00:55;;;;;;;10.70;5.32;;;;;;;33.35;47.96;97343.69;4851356;29;20153;-65
2022/05/26 13:03:45;;;;;;;15.75;5.35;;;;;;;33.24;47.64;97344.44;4835349;29;20534;-63
2022/05/26 13:06:42;;;;;;;15.77;6.30;;;;;;;33.11;47.17;97337.34;4850947;29;20057;-65
2022/05/26 13:09:37;;;;;;;26.88;6.45;;;;;;;33.04;46.41;97336.63;4850862;29;20053;-65
2022/05/26 13:12:26;;;;;;;14.75;6.00;;;;;;;32.96;46.13;97334.22;4851630;29;20149;-65
2022/05/26 13:15:09;;;;;;;17.08;5.88;;;;;;;32.94;44.70;97336.31;4847174;29;20878;-65
2022/05/26 13:18:05;;;;;;;14.75;5.60;;;;;;;32.86;46.14;97340.06;4849113;29;20049;-65
2022/05/26 13:21:00;;;;;;;18.02;5.85;;;;;;;32.80;46.54;97340.97;4843995;29;20129;-66
2022/05/26 13:23:40;;;;;;;23.70;6.57;;;;;;;32.79;44.64;97339.31;4847240;29;20049;-64
2022/05/26 13:26:37;;;;;;;26.70;6.53;;;;;;;32.69;49.06;97339.00;4842562;29;20286;-63
2022/05/26 13:29:17;;;;;;;18.17;6.15;;;;;;;32.58;51.48;97347.66;4850608;29;20049;-66
2022/05/26 13:35:25;;;;;;;16.17;6.25;;;;;;;32.35;56.91;97342.13;4848646;29;20046;-65
2022/05/26 13:38:29;;;;;;;22.15;6.93;;;;;;;32.22;52.19;97343.84;4846796;29;20061;-64
2022/05/26 13:41:26;;;;;;;15.73;5.75;;;;;;;32.14;53.06;97346.75;4851839;29;20121;-66
2022/05/26 13:44:48;;;;;;;23.17;7.65;;;;;;;32.09;53.41;97343.91;4848061;29;20772;-66
2022/05/26 13:47:24;;;;;;;16.85;6.30;;;;;;;32.06;54.01;97351.53;4853454;29;20057;-66
2022/05/26 13:50:34;;;;;;;15.98;6.63;;;;;;;31.94;59.28;97351.38;4853303;29;20045;-67
2022/05/26 13:53:15;;;;;;;17.73;6.53;;;;;;;31.86;59.89;97347.09;4854653;29;20069;-65
2022/05/26 13:56:06;;;;;;;20.52;7.07;;;;;;;31.76;64.06;97346.78;4853867;29;20054;-65
2022/05/26 13:58:53;;;;;;;23.17;6.88;;;;;;;31.68;62.68;97347.03;4853566;29;20069;-65
2022/05/26 14:02:04;;;;;;;22.58;6.22;;;;;;;31.60;62.96;97355.22;4820382;29;20058;-65
2022/05/26 14:04:49;;;;;;;23.13;6.55;;;;;;;31.55;56.42;97347.84;4855276;29;20386;-64
2022/05/26 14:07:44;;;;;;;26.60;6.80;;;;;;;31.52;58.25;97348.28;4853739;29;20053;-66
2022/05/26 14:10:34;;;;;;;16.80;6.70;;;;;;;31.48;60.15;97356.91;4854904;29;20054;-64
2022/05/26 14:13:28;;;;;;;19.10;6.72;;;;;;;31.42;61.59;97358.56;4855000;29;20050;-63